Aérodrome :
LOGIN :

S'inscrire | Disclaimer

   EN    FR    IT 

 










Légende :    VFR   VFR Marginal   IFR   IFR Intensif   IFR Très Intensif
Visi : 
Plafond : 
>= 8 km
>= 3000ft
5 à 8 km
1000 à 3000 ft
1500m à 5 km
500 à 1000 ft
800 à 1500m
200 à 500 ft
< 800m
< 200 ft
Symboles :   Orages  Brouillard  Fortes neiges  Fortes précipitations  Vent > 20 kt
SIGMETs :   Divers  Orages  Givrage  Turbulence  Onde Orograph.  Cendres Volcan.






- Altitude de l'aérodrome : 1708 ft
- Code IATA : SJJ


LQSA - Sarajevo

DERNIER METAR :
  • 221600Z VRB01KT 5000 BR NSC M02/M04 Q1028 NOSIG

METARs EXPIRÉS :
  • 221530Z 00000KT 6000 NSC M00/M04 Q1028 NOSIG
  • 221500Z VRB02KT 6000 NSC 01/M04 Q1029 NOSIG
  • 221430Z VRB02KT 7000 NSC 01/M04 Q1029 NOSIG
  • 221400Z VRB01KT 7000 NSC 02/M05 Q1029 NOSIG
  • 221330Z VRB01KT 7000 NSC 02/M05 Q1030 NOSIG

TAF TAF LQSA
Valide du 22 à 12h jusqu'au 23 à 12h UTC


221100Z 2212/2312 VRB02KT 2000 BR NSC TX00/2213Z TNM06/2305Z
TEMPO 2212/2218 4000
PROB30
TEMPO 2213/2216 6000 NSW
TEMPO 2220/2309 0600 FZFG BKN002
PROB30 2305/2307 0300 BKN001
BECMG 2309/2311 4000



MET'MAP, la Météo Aéronautique d'un coup d'oeil ! - Copyright ORBIFLY Décembre 2007 - Disclaimer

ORBIFLY MET'MAP TEAM :

Programmation & Développement : Alexandra Zaïnal
Sur une idée originale de : Baudouin d'Aumeries
Assistance à la programmation : Marc-Olivier Méhu
Soutien technique & logistique : Manuel Goepfert

Contact : metmap@orbifly.com




SOURCES & CREDITS :

   NOAA